Time;durP1;ratioP1;P1;durP2;ratioP2;P2;SDS_P1;SDS_P2;PMS_P1;PMS_P2;Temp;Humidity;BMP_temperature;BMP_pressure;BME280_temperature;BME280_humidity;BME280_pressure;Samples;Min_cycle;Max_cycle;Signal;HPM_P1;HPM_P2
2021/12/01 00:01:31;;;;;;;3.08;2.42;;;9.20;99.90;;;9.77;100.00;99186.31;5019297;28;20033;-79
2021/12/01 00:03:59;;;;;;;2.03;1.83;;;9.20;99.90;;;9.80;100.00;99182.75;5019790;28;20025;-80
2021/12/01 00:06:25;;;;;;;2.88;2.03;;;9.20;99.90;;;9.75;100.00;99177.56;5019151;28;20082;-77
2021/12/01 00:08:51;;;;;;;2.50;1.52;;;9.10;99.90;;;9.80;100.00;99179.97;5001804;28;20116;-79
2021/12/01 00:11:17;;;;;;;1.67;1.30;;;9.20;99.90;;;9.70;100.00;99171.53;5002057;28;20056;-81
2021/12/01 00:13:43;;;;;;;1.30;1.20;;;9.20;99.90;;;9.73;100.00;99163.19;5018916;28;20026;-82
2021/12/01 00:16:09;;;;;;;1.73;1.40;;;9.20;99.90;;;9.76;100.00;99164.44;5019245;28;20072;-79
2021/12/01 00:18:35;;;;;;;1.00;0.80;;;9.20;99.90;;;9.73;100.00;99165.22;5018716;28;20037;-80
2021/12/01 00:21:02;;;;;;;1.08;0.90;;;9.10;99.90;;;9.66;100.00;99151.22;5023588;28;20030;-79
2021/12/01 00:23:34;;;;;;;1.67;1.02;;;9.10;99.90;;;9.71;100.00;99157.22;5020430;28;20017;-79
2021/12/01 00:26:00;;;;;;;2.15;0.90;;;9.10;99.90;;;9.68;100.00;99148.81;5023655;28;20510;-81
2021/12/01 00:28:26;;;;;;;0.80;0.80;;;9.10;99.90;;;9.73;100.00;99142.91;5039341;28;20029;-80
2021/12/01 00:30:53;;;;;;;2.28;0.82;;;9.10;99.90;;;9.70;100.00;99146.44;5038642;28;20523;-79
2021/12/01 00:33:22;;;;;;;1.10;0.85;;;9.10;99.90;;;9.64;100.00;99140.44;5038703;28;20037;-79
2021/12/01 00:35:56;;;;;;;0.98;0.88;;;9.10;99.90;;;9.56;100.00;99124.06;5021065;28;20044;-81
2021/12/01 00:38:26;;;;;;;1.13;0.95;;;9.10;99.90;;;9.63;100.00;99124.13;5021199;28;20064;-80
2021/12/01 00:40:53;;;;;;;1.73;1.00;;;9.10;99.90;;;9.64;100.00;99118.13;5037671;28;20032;-81
2021/12/01 00:43:20;;;;;;;1.02;0.93;;;9.10;99.90;;;9.60;100.00;99111.72;5019770;28;20072;-79
2021/12/01 00:46:00;;;;;;;1.00;1.00;;;9.00;99.90;;;9.60;100.00;99116.53;5019938;28;20026;-79
2021/12/01 00:48:27;;;;;;;2.42;1.38;;;9.00;99.90;;;9.57;100.00;99101.38;5038632;28;20045;-81
2021/12/01 00:50:55;;;;;;;2.17;0.90;;;9.00;99.90;;;9.56;100.00;99104.56;5020782;28;20029;-80
2021/12/01 00:53:24;;;;;;;2.17;1.13;;;9.00;99.90;;;9.55;100.00;99120.47;5039074;28;20021;-78
2021/12/01 00:55:50;;;;;;;2.15;1.10;;;9.00;99.90;;;9.54;100.00;99100.16;5036384;28;20083;-78
2021/12/01 00:58:16;;;;;;;1.20;1.10;;;9.00;99.90;;;9.51;100.00;99100.13;5038031;28;20040;-81
2021/12/01 01:00:44;;;;;;;6.28;1.70;;;9.00;99.90;;;9.52;100.00;99096.97;5038400;28;20036;-78
2021/12/01 01:03:10;;;;;;;2.45;1.30;;;9.00;99.90;;;9.52;100.00;99090.59;5037247;28;20029;-81
2021/12/01 01:05:37;;;;;;;1.85;1.52;;;9.00;99.90;;;9.57;100.00;99089.44;5019583;28;20076;-79
2021/12/01 01:08:06;;;;;;;1.85;1.40;;;9.00;99.90;;;9.49;100.00;99078.25;5037057;28;20045;-80
2021/12/01 01:16:22;;;;;;;4.30;2.13;;;9.00;99.90;;;9.55;100.00;99067.53;5036742;28;20040;-79
2021/12/01 01:19:05;;;;;;;4.55;1.70;;;9.00;99.90;;;9.55;100.00;99061.94;5037452;28;20038;-77
2021/12/01 01:21:41;;;;;;;3.08;2.03;;;9.00;99.90;;;9.53;100.00;99058.75;5037026;28;20025;-80
2021/12/01 01:24:11;;;;;;;3.00;1.60;;;9.00;99.90;;;9.54;100.00;99054.75;5020623;28;20052;-82
2021/12/01 01:26:38;;;;;;;3.72;1.80;;;9.00;99.90;;;9.50;100.00;99051.19;5019824;28;20025;-79
2021/12/01 01:29:06;;;;;;;2.03;1.50;;;9.00;99.90;;;9.55;100.00;99039.66;5037307;28;20029;-80
2021/12/01 01:31:33;;;;;;;2.72;1.90;;;9.00;99.90;;;9.49;100.00;99033.66;5019216;28;20033;-80
2021/12/01 01:34:00;;;;;;;2.55;1.50;;;9.00;99.90;;;9.54;100.00;99035.25;5037594;28;20036;-80
2021/12/01 01:36:28;;;;;;;2.35;1.75;;;9.00;99.90;;;9.49;100.00;99024.50;5019436;28;20029;-80
2021/12/01 01:38:58;;;;;;;1.85;1.38;;;9.00;99.90;;;9.45;100.00;99026.44;5037260;28;20128;-79
2021/12/01 01:41:25;;;;;;;3.42;1.90;;;9.00;99.90;;;9.53;100.00;99023.31;5036724;28;20460;-80
2021/12/01 01:43:51;;;;;;;2.65;1.50;;;9.00;99.90;;;9.53;100.00;99008.59;5036111;28;20029;-81
2021/12/01 01:46:18;;;;;;;2.03;1.75;;;9.00;99.90;;;9.54;100.00;98994.25;5037463;28;20036;-79
2021/12/01 01:48:47;;;;;;;2.70;1.80;;;9.00;99.90;;;9.51;100.00;98988.66;5036848;28;20040;-79
2021/12/01 01:51:17;;;;;;;2.20;1.58;;;9.00;99.90;;;9.53;100.00;98986.31;5019170;28;20037;-80
2021/12/01 01:53:54;;;;;;;2.97;1.70;;;9.00;99.90;;;9.49;100.00;98991.84;5018292;28;20040;-78
2021/12/01 01:56:21;;;;;;;2.17;1.92;;;9.00;99.90;;;9.53;100.00;98981.50;5036256;28;20113;-80
2021/12/01 01:58:48;;;;;;;3.88;2.10;;;9.00;99.90;;;9.50;100.00;98982.28;5035786;28;20067;-79
2021/12/01 02:03:59;;;;;;;2.33;1.90;;;9.00;99.90;;;9.51;100.00;98963.56;5035200;28;20029;-78
2021/12/01 02:06:26;;;;;;;4.45;2.70;;;9.00;99.90;;;9.52;100.00;98963.19;5036944;28;20029;-79
2021/12/01 02:08:57;;;;;;;2.63;1.80;;;9.00;99.90;;;9.49;100.00;98936.13;5036264;28;20038;-79
2021/12/01 02:11:26;;;;;;;4.10;2.10;;;9.00;99.90;;;9.51;100.00;98944.06;5037403;28;20033;-78
2021/12/01 02:13:58;;;;;;;2.75;2.10;;;9.00;99.90;;;9.48;100.00;98936.50;5044117;28;20093;-77
2021/12/01 02:16:25;;;;;;;2.95;1.75;;;9.00;99.90;;;9.48;100.00;98937.31;5050641;28;20033;-77
2021/12/01 02:18:51;;;;;;;2.45;2.08;;;9.00;99.90;;;9.51;100.00;98919.00;5032796;28;20029;-78
2021/12/01 02:21:27;;;;;;;2.30;1.90;;;9.00;99.90;;;9.52;100.00;98912.25;5035127;28;20151;-78
2021/12/01 02:24:05;;;;;;;2.95;2.05;;;9.00;99.90;;;9.54;100.00;98909.84;5052314;28;20064;-77
2021/12/01 02:26:39;;;;;;;2.30;1.92;;;9.00;99.90;;;9.47;100.00;98909.84;5049666;28;20022;-79
2021/12/01 02:29:13;;;;;;;3.17;1.65;;;9.00;99.90;;;9.46;100.00;98911.03;5051064;28;20034;-77
2021/12/01 02:31:40;;;;;;;3.22;1.80;;;9.00;99.90;;;9.43;100.00;98895.09;5034424;28;20030;-78
2021/12/01 02:34:18;;;;;;;3.08;1.65;;;9.00;99.90;;;9.49;100.00;98885.97;5051453;28;20044;-77
2021/12/01 02:36:53;;;;;;;4.40;2.25;;;8.90;99.90;;;9.39;100.00;98886.72;5050488;28;20036;-77
2021/12/01 02:39:19;;;;;;;4.50;1.47;;;8.90;99.90;;;9.40;100.00;98873.59;5033946;28;20053;-78
2021/12/01 02:41:55;;;;;;;2.47;1.85;;;8.90;99.90;;;9.42;100.00;98868.41;5049493;28;20311;-80
2021/12/01 02:44:27;;;;;;;3.60;1.88;;;8.90;99.90;;;9.31;100.00;98865.59;5056857;23;20183;-81
2021/12/01 02:46:56;;;;;;;3.03;1.50;;;8.90;99.90;;;9.46;100.00;98870.03;5034422;28;20036;-79
2021/12/01 02:49:25;;;;;;;2.95;1.45;;;8.90;99.90;;;9.45;100.00;98854.50;5050355;28;20082;-80
2021/12/01 02:51:56;;;;;;;5.20;1.58;;;8.90;99.90;;;9.48;100.00;98861.25;5033650;28;20032;-79
2021/12/01 02:54:26;;;;;;;2.10;1.58;;;8.90;99.90;;;9.43;100.00;98851.31;5046594;28;20124;-81
2021/12/01 02:56:54;;;;;;;2.83;1.75;;;8.90;99.90;;;9.44;100.00;98850.09;5038126;28;20085;-82
2021/12/01 02:59:24;;;;;;;3.67;2.03;;;8.90;99.90;;;9.43;100.00;98844.94;5035369;28;20021;-80
2021/12/01 03:01:52;;;;;;;2.63;1.92;;;8.90;99.90;;;9.37;100.00;98849.31;5015171;28;20030;-80
2021/12/01 03:04:21;;;;;;;3.03;1.77;;;8.90;99.90;;;9.44;100.00;98838.16;5033147;28;20068;-82
2021/12/01 03:06:50;;;;;;;4.07;1.98;;;8.90;99.90;;;9.42;100.00;98823.84;5014427;28;20025;-82
2021/12/01 03:09:16;;;;;;;3.22;2.38;;;8.90;99.90;;;9.32;100.00;98825.41;5014270;28;20025;-81
2021/12/01 03:11:44;;;;;;;2.92;2.33;;;8.90;99.90;;;9.33;100.00;98826.19;5032491;28;20108;-81
2021/12/01 03:14:15;;;;;;;7.20;2.60;;;8.80;99.90;;;9.21;100.00;98832.94;5033045;28;20075;-81
2021/12/01 03:16:44;;;;;;;6.00;2.45;;;8.80;99.90;;;9.33;100.00;98827.00;5034243;28;20112;-80
2021/12/01 03:19:10;;;;;;;3.67;2.72;;;8.80;99.90;;;9.27;100.00;98811.06;5035212;28;20036;-81
2021/12/01 03:21:44;;;;;;;5.50;2.72;;;8.80;99.90;;;9.28;100.00;98821.78;5030839;28;20478;-80
2021/12/01 03:24:12;;;;;;;5.60;3.05;;;8.80;99.90;;;9.28;100.00;98799.50;5038823;28;20025;-80
2021/12/01 03:26:41;;;;;;;4.10;2.90;;;8.80;99.90;;;9.25;100.00;98805.88;5054573;28;20013;-81
2021/12/01 03:29:08;;;;;;;5.15;3.40;;;8.80;99.90;;;9.15;100.00;98781.56;5054556;28;20025;-78
2021/12/01 03:31:37;;;;;;;5.85;4.07;;;8.70;99.90;;;9.21;100.00;98804.28;5021470;28;20083;-79
2021/12/01 03:34:06;;;;;;;4.70;3.72;;;8.70;99.90;;;9.21;100.00;98801.50;5014508;28;20482;-81
2021/12/01 03:36:35;;;;;;;5.53;3.75;;;8.70;99.90;;;9.14;100.00;98793.91;5013930;28;20060;-79
2021/12/01 03:39:01;;;;;;;6.03;4.32;;;8.70;99.90;;;9.13;100.00;98777.59;5031704;28;20040;-81
2021/12/01 03:41:30;;;;;;;5.28;3.70;;;8.60;99.90;;;9.10;100.00;98781.16;5014697;28;20421;-79
2021/12/01 03:44:00;;;;;;;5.95;3.92;;;8.60;99.90;;;9.11;100.00;98796.69;5014330;28;20037;-80
2021/12/01 03:46:26;;;;;;;4.68;3.92;;;8.60;99.90;;;9.08;100.00;98786.34;5017918;28;20120;-79
2021/12/01 03:48:54;;;;;;;4.63;4.13;;;8.60;99.90;;;9.01;100.00;98770.41;5036421;28;20072;-79
2021/12/01 03:51:20;;;;;;;7.90;4.18;;;8.50;99.90;;;9.02;100.00;98764.44;5018967;28;20110;-77
2021/12/01 03:53:46;;;;;;;7.00;4.05;;;8.60;99.90;;;8.99;100.00;98762.44;5036643;28;20108;-80
2021/12/01 03:56:12;;;;;;;5.10;4.15;;;8.50;99.90;;;9.04;100.00;98749.31;5018835;28;20064;-79
2021/12/01 03:58:38;;;;;;;6.00;3.60;;;8.50;99.90;;;8.94;100.00;98742.53;5018375;28;20037;-79
2021/12/01 04:01:11;;;;;;;6.57;4.03;;;8.50;99.90;;;9.05;100.00;98745.34;5018197;28;20037;-77
2021/12/01 04:03:36;;;;;;;6.53;4.45;;;8.50;99.90;;;9.05;100.00;98731.44;5018151;28;20025;-79
2021/12/01 04:06:08;;;;;;;4.68;3.95;;;8.50;99.90;;;8.98;100.00;98730.22;5018119;28;20408;-80
2021/12/01 04:08:35;;;;;;;5.13;4.10;;;8.50;99.90;;;9.00;100.00;98716.69;5035763;28;20022;-80
2021/12/01 04:11:00;;;;;;;8.05;4.28;;;8.50;99.90;;;8.89;100.00;98713.06;5035426;28;20032;-80
2021/12/01 04:13:26;;;;;;;5.68;3.80;;;8.40;99.90;;;8.90;100.00;98708.31;5035662;28;20392;-78
2021/12/01 04:15:52;;;;;;;6.97;4.32;;;8.30;99.90;;;8.80;100.00;98695.97;5035714;28;20085;-79
2021/12/01 04:18:18;;;;;;;5.32;4.22;;;8.30;99.90;;;8.80;100.00;98695.97;5036154;28;20036;-80
2021/12/01 04:20:47;;;;;;;8.55;4.90;;;8.30;99.90;;;8.73;100.00;98687.59;5035285;28;20051;-80
2021/12/01 04:23:16;;;;;;;6.35;4.47;;;8.30;99.90;;;8.67;100.00;98680.03;5036541;28;20134;-79
2021/12/01 04:25:45;;;;;;;5.53;4.60;;;8.20;99.90;;;8.66;100.00;98667.31;5037324;28;20157;-82
2021/12/01 04:28:11;;;;;;;6.88;4.97;;;8.20;99.90;;;8.69;100.00;98663.72;5035824;28;20081;-80
2021/12/01 04:30:40;;;;;;;6.68;5.15;;;8.20;99.90;;;8.66;100.00;98654.19;5018499;28;20056;-80
2021/12/01 04:33:06;;;;;;;5.68;4.60;;;8.20;99.90;;;8.61;100.00;98651.78;5033408;28;20034;-80
2021/12/01 04:35:38;;;;;;;5.97;4.32;;;8.20;99.90;;;8.62;100.00;98649.78;5016224;28;20036;-80
2021/12/01 04:38:05;;;;;;;6.53;4.00;;;8.20;99.90;;;8.58;100.00;98635.88;5021019;28;20057;-80
2021/12/01 04:40:34;;;;;;;7.22;3.92;;;8.10;99.90;;;8.66;100.00;98620.00;5030295;28;20045;-81
2021/12/01 04:43:03;;;;;;;4.47;3.72;;;8.10;99.90;;;8.69;100.00;98620.00;5038068;28;20028;-80
2021/12/01 04:45:41;;;;;;;5.47;3.80;;;8.20;99.90;;;8.73;100.00;98636.72;5037967;28;20021;-82
2021/12/01 04:48:07;;;;;;;5.97;3.92;;;8.20;99.90;;;8.72;100.00;98621.19;5025518;28;20485;-82
2021/12/01 04:50:35;;;;;;;6.35;4.22;;;8.20;99.90;;;8.75;100.00;98628.75;5035793;28;20034;-82
2021/12/01 04:53:01;;;;;;;5.63;4.38;;;8.30;99.90;;;8.78;100.00;98616.84;5036936;28;20057;-80
2021/12/01 04:55:28;;;;;;;6.78;4.68;;;8.30;99.90;;;8.83;100.00;98635.94;5045246;28;20025;-84
2021/12/01 04:57:55;;;;;;;6.47;4.50;;;8.30;99.90;;;8.85;100.00;98619.63;5023005;28;20033;-79
2021/12/01 05:00:26;;;;;;;4.65;4.22;;;8.30;99.90;;;8.76;100.00;98608.09;5036401;28;20044;-81
2021/12/01 05:02:54;;;;;;;5.47;4.10;;;8.30;99.90;;;8.77;100.00;98620.81;5018924;28;20048;-83
2021/12/01 05:05:20;;;;;;;4.32;3.88;;;8.30;99.90;;;8.79;100.00;98602.53;5036157;28;20418;-79
2021/12/01 05:07:46;;;;;;;5.05;3.70;;;8.30;99.90;;;8.77;100.00;98593.78;5017970;28;20048;-80
2021/12/01 05:10:18;;;;;;;3.47;2.70;;;8.40;99.90;;;8.76;100.00;98596.97;5018127;28;20248;-81
2021/12/01 05:12:44;;;;;;;5.90;3.92;;;8.30;99.90;;;8.83;100.00;98571.94;5035591;28;20029;-82
2021/12/01 05:15:13;;;;;;;5.97;3.42;;;8.30;99.90;;;8.75;100.00;98585.03;5018220;28;20036;-81
2021/12/01 05:17:40;;;;;;;4.40;3.38;;;8.30;99.90;;;8.78;100.00;98583.44;5018772;28;20037;-82
2021/12/01 05:20:11;;;;;;;3.95;3.28;;;8.40;99.90;;;8.81;100.00;98569.53;5037061;28;20064;-81
2021/12/01 05:22:38;;;;;;;4.80;3.28;;;8.40;99.90;;;8.90;100.00;98564.34;5036480;28;20024;-80
2021/12/01 05:25:05;;;;;;;3.95;2.80;;;8.40;99.90;;;8.83;100.00;98538.53;5036092;28;20029;-81
2021/12/01 05:27:32;;;;;;;3.95;2.97;;;8.40;99.90;;;8.93;100.00;98543.28;5017986;28;20483;-82
2021/12/01 05:30:04;;;;;;;5.30;3.30;;;8.40;99.90;;;8.84;100.00;98524.19;5036358;28;20029;-82
2021/12/01 05:32:31;;;;;;;6.25;3.97;;;8.40;99.90;;;8.77;100.00;98517.81;5034376;28;20025;-80
2021/12/01 05:34:59;;;;;;;5.05;3.00;;;8.40;99.90;;;8.92;100.00;98522.22;5035345;28;20634;-80
2021/12/01 05:37:26;;;;;;;3.53;2.80;;;8.40;99.90;;;8.97;100.00;98516.22;5018195;28;20061;-80
2021/12/01 05:39:58;;;;;;;5.82;2.80;;;8.50;99.90;;;8.89;100.00;98507.09;5036106;28;20484;-80
2021/12/01 05:42:24;;;;;;;4.03;2.47;;;8.40;99.90;;;8.88;100.00;98499.16;5037301;28;20033;-80
2021/12/01 05:44:50;;;;;;;4.20;2.72;;;8.40;99.90;;;8.88;100.00;98494.38;5036073;28;20032;-82
2021/12/01 05:47:15;;;;;;;3.10;2.60;;;8.40;99.90;;;8.88;100.00;98465.75;5037443;28;20033;-79
2021/12/01 05:49:43;;;;;;;4.38;2.72;;;8.40;99.90;;;8.83;100.00;98480.06;5037609;28;20492;-79
2021/12/01 05:52:16;;;;;;;3.60;2.58;;;8.40;99.90;;;8.81;100.00;98466.53;5037029;28;20022;-82
2021/12/01 05:54:50;;;;;;;6.47;3.00;;;8.30;99.90;;;8.74;100.00;98455.41;5019163;28;20120;-82
2021/12/01 05:57:17;;;;;;;4.07;2.92;;;8.40;99.90;;;8.82;100.00;98439.50;5019147;28;20113;-83
2021/12/01 05:59:43;;;;;;;7.18;3.20;;;8.40;99.90;;;8.82;100.00;98440.31;5034663;28;20025;-80
2021/12/01 06:02:18;;;;;;;3.45;3.00;;;8.40;99.90;;;8.76;100.00;98413.28;5035980;28;20036;-80
2021/12/01 06:04:48;;;;;;;4.32;2.88;;;8.40;99.90;;;8.68;100.00;98401.34;5035133;28;20034;-79
2021/12/01 06:07:17;;;;;;;4.55;2.83;;;8.40;99.90;;;8.67;100.00;98399.75;5034072;28;20116;-80
2021/12/01 06:09:43;;;;;;;4.22;2.80;;;8.40;99.90;;;8.75;100.00;98392.22;5034511;28;20052;-83
2021/12/01 06:12:12;;;;;;;5.57;3.65;;;8.40;99.90;;;8.70;100.00;98393.38;5034490;28;20480;-81
2021/12/01 06:14:41;;;;;;;6.70;3.28;;;8.40;99.90;;;8.76;100.00;98394.59;5035598;28;20033;-80
2021/12/01 06:17:26;;;;;;;4.30;3.42;;;8.40;99.90;;;8.72;100.00;98373.53;5017448;28;20411;-83
2021/12/01 06:19:53;;;;;;;4.43;3.22;;;8.40;99.90;;;8.71;100.00;98363.59;5017191;28;20032;-83
2021/12/01 06:22:19;;;;;;;4.55;3.42;;;8.30;99.90;;;8.59;100.00;98373.16;5019371;28;20025;-84
2021/12/01 06:24:46;;;;;;;6.60;3.30;;;8.20;99.90;;;8.55;100.00;98368.78;5040268;28;20063;-85
2021/12/01 06:27:12;;;;;;;5.43;3.20;;;8.10;99.90;;;8.56;100.00;98356.47;5041013;28;20077;-83
2021/12/01 06:29:38;;;;;;;5.45;2.75;;;8.20;99.90;;;8.51;100.00;98365.22;5039501;28;20175;-82
2021/12/01 06:32:05;;;;;;;5.03;2.95;;;8.10;99.90;;;8.55;100.00;98352.09;5019538;28;20103;-83
2021/12/01 06:34:31;;;;;;;6.63;2.67;;;8.10;99.90;;;8.57;100.00;98347.72;5034143;28;20025;-81
2021/12/01 06:36:57;;;;;;;3.63;2.63;;;8.20;99.90;;;8.48;100.00;98352.13;5033872;28;20104;-77
2021/12/01 06:39:24;;;;;;;4.85;3.10;;;8.10;99.90;;;8.52;100.00;98337.00;5016170;28;20040;-81
2021/12/01 06:41:50;;;;;;;3.38;2.30;;;8.10;99.90;;;8.42;100.00;98335.81;5033604;28;20033;-82
2021/12/01 06:44:16;;;;;;;5.35;3.00;;;8.10;99.90;;;8.37;100.00;98324.31;5034012;28;20030;-82
2021/12/01 06:46:41;;;;;;;3.40;2.40;;;8.00;99.90;;;8.37;100.00;98327.88;5016399;28;20395;-81
2021/12/01 06:49:10;;;;;;;2.80;2.28;;;8.00;99.90;;;8.37;100.00;98313.97;5034390;28;20033;-82
2021/12/01 06:51:36;;;;;;;3.97;2.75;;;8.10;99.90;;;8.39;100.00;98321.91;5033470;28;20484;-83
2021/12/01 06:54:02;;;;;;;3.40;2.30;;;8.00;99.90;;;8.37;100.00;98318.75;5017311;28;20101;-84
2021/12/01 06:56:28;;;;;;;6.35;2.42;;;8.00;99.90;;;8.28;100.00;98308.00;5015332;28;20117;-81
2021/12/01 06:58:54;;;;;;;5.45;2.30;;;7.90;99.90;;;8.30;100.00;98302.88;5014374;28;20076;-83
2021/12/01 07:01:20;;;;;;;6.93;2.42;;;7.90;99.90;;;8.33;100.00;98301.25;5033116;28;20114;-81
2021/12/01 07:03:49;;;;;;;2.78;2.15;;;7.90;99.90;;;8.28;100.00;98305.22;5015471;28;20083;-81
2021/12/01 07:06:14;;;;;;;3.53;2.50;;;8.00;99.90;;;8.24;100.00;98292.50;5033405;28;20025;-81
2021/12/01 07:08:48;;;;;;;2.80;2.40;;;7.90;99.90;;;8.17;100.00;98292.50;5032124;28;20060;-79
2021/12/01 07:11:14;;;;;;;3.65;2.45;;;7.80;99.90;;;8.08;100.00;98278.22;5014461;28;20493;-80
2021/12/01 07:13:40;;;;;;;4.07;2.80;;;7.70;99.90;;;8.09;100.00;98277.06;5032379;28;20037;-75
2021/12/01 07:16:05;;;;;;;2.97;2.40;;;7.70;99.90;;;7.97;100.00;98272.69;5032243;28;20452;-80
2021/12/01 07:18:32;;;;;;;3.20;2.35;;;7.70;99.90;;;8.00;100.00;98263.53;5014027;28;20029;-77
2021/12/01 07:20:58;;;;;;;2.80;2.20;;;7.70;99.90;;;8.00;100.00;98260.75;5035210;28;20505;-78
2021/12/01 07:23:24;;;;;;;3.10;2.40;;;7.60;99.90;;;7.86;100.00;98269.91;5036385;28;20111;-78
2021/12/01 07:25:50;;;;;;;4.22;2.20;;;7.60;99.90;;;7.88;100.00;98273.09;5022396;28;20057;-82
2021/12/01 07:28:19;;;;;;;2.97;2.25;;;7.60;99.90;;;7.93;100.00;98264.34;5020290;28;20436;-81
2021/12/01 07:30:45;;;;;;;3.42;2.22;;;7.60;99.90;;;7.92;100.00;98259.19;5018341;28;20025;-82
2021/12/01 07:33:16;;;;;;;2.65;1.70;;;7.60;99.90;;;7.95;100.00;98241.72;5036793;28;20037;-82
2021/12/01 07:35:43;;;;;;;3.45;2.30;;;7.50;99.90;;;8.01;100.00;98247.66;5019715;28;20496;-82
2021/12/01 07:38:13;;;;;;;6.03;2.17;;;7.60;99.90;;;7.88;100.00;98236.16;5019424;28;20049;-80
2021/12/01 07:40:42;;;;;;;2.40;1.83;;;7.60;99.90;;;7.84;100.00;98240.91;5036665;28;20025;-81
2021/12/01 07:43:08;;;;;;;3.15;1.90;;;7.50;99.90;;;7.88;100.00;98242.50;5038558;28;20025;-83
2021/12/01 07:45:35;;;;;;;3.42;2.00;;;7.50;99.90;;;7.87;100.00;98242.91;5050636;28;20034;-78
2021/12/01 07:48:02;;;;;;;2.72;1.80;;;7.50;99.90;;;7.83;100.00;98229.00;5058163;28;20040;-80
2021/12/01 07:50:28;;;;;;;3.65;1.60;;;7.50;99.90;;;7.88;100.00;98245.28;5037676;28;20029;-78
2021/12/01 07:52:57;;;;;;;2.70;1.92;;;7.50;99.90;;;7.88;100.00;98223.06;5017943;28;20368;-79
2021/12/01 07:55:22;;;;;;;3.45;1.80;;;7.50;99.90;;;7.84;100.00;98221.47;5035617;28;20068;-80
2021/12/01 07:57:48;;;;;;;2.33;1.60;;;7.50;99.90;;;7.78;100.00;98207.19;5017821;28;20505;-79
2021/12/01 08:00:15;;;;;;;2.00;1.35;;;7.50;99.90;;;7.87;100.00;98212.34;5035716;28;20084;-82
2021/12/01 08:02:41;;;;;;;1.40;1.23;;;7.50;99.90;;;7.87;100.00;98195.66;5035427;28;20480;-79
2021/12/01 08:05:14;;;;;;;2.03;1.50;;;7.50;99.90;;;7.88;100.00;98208.38;5036512;28;20061;-82
2021/12/01 08:07:40;;;;;;;2.13;1.40;;;7.50;99.90;;;7.78;100.00;98204.41;5035593;28;20100;-80
2021/12/01 08:10:08;;;;;;;2.15;1.40;;;7.50;99.90;;;7.77;100.00;98190.94;5035757;28;20033;-80
2021/12/01 08:12:34;;;;;;;1.58;1.27;;;7.50;99.90;;;7.81;100.00;98208.38;5017645;28;20033;-80
2021/12/01 08:15:07;;;;;;;1.90;1.10;;;7.50;99.90;;;7.88;100.00;98208.38;5035094;28;20033;-82
2021/12/01 08:17:33;;;;;;;1.80;1.65;;;7.50;99.90;;;7.90;100.00;98204.00;5020501;28;20087;-83
2021/12/01 08:19:59;;;;;;;3.50;1.50;;;7.50;99.90;;;7.89;100.00;98204.41;5037862;28;20034;-82
2021/12/01 08:22:27;;;;;;;2.47;1.40;;;7.50;99.90;;;7.86;100.00;98211.56;5016449;28;20022;-79
2021/12/01 08:24:54;;;;;;;2.80;1.80;;;7.50;99.90;;;7.92;100.00;98184.16;4999194;28;20103;-79
2021/12/01 08:27:21;;;;;;;1.45;1.27;;;7.50;99.90;;;8.02;100.00;98202.00;4999189;28;20539;-79
2021/12/01 08:29:47;;;;;;;3.08;1.50;;;7.50;99.90;;;7.90;100.00;98205.97;5000027;28;20029;-81
2021/12/01 08:32:21;;;;;;;1.48;1.33;;;7.50;99.90;;;7.99;100.00;98202.81;5000861;28;20030;-82
2021/12/01 08:34:51;;;;;;;2.22;1.20;;;7.60;99.90;;;8.00;100.00;98191.28;5019557;28;20029;-80
2021/12/01 08:37:20;;;;;;;1.95;1.20;;;7.60;99.90;;;8.02;100.00;98185.31;5018056;28;20022;-79
2021/12/01 08:39:50;;;;;;;2.08;1.33;;;7.60;99.90;;;8.08;100.00;98178.97;4999503;28;20022;-81
2021/12/01 08:42:20;;;;;;;1.50;1.17;;;7.60;99.90;;;8.01;100.00;98181.75;5016826;28;20041;-78
2021/12/01 08:47:20;;;;;;;2.22;0.88;;;7.60;99.90;;;8.07;100.00;98188.47;5074660;28;20109;-79
2021/12/01 08:49:47;;;;;;;2.47;1.40;;;7.60;99.90;;;8.08;100.00;98178.97;5077639;28;20115;-79
2021/12/01 08:52:14;;;;;;;1.35;0.88;;;7.60;99.90;;;8.13;100.00;98186.06;5060214;28;20101;-81
2021/12/01 08:54:41;;;;;;;2.13;0.98;;;7.70;99.90;;;8.17;100.00;98189.66;5039937;28;20029;-80
2021/12/01 08:57:11;;;;;;;2.85;1.00;;;7.60;99.90;;;8.09;100.00;98180.53;5035935;28;20040;-80
2021/12/01 08:59:39;;;;;;;2.08;1.17;;;7.60;99.90;;;8.10;100.00;98172.97;5036465;28;20041;-78
2021/12/01 09:02:06;;;;;;;2.05;0.85;;;7.60;99.90;;;8.04;100.00;98160.69;5034160;28;20029;-78
2021/12/01 09:04:32;;;;;;;1.17;0.80;;;7.60;99.90;;;8.05;100.00;98168.66;5035522;28;20033;-79
2021/12/01 09:06:58;;;;;;;1.85;1.10;;;7.70;99.90;;;8.21;100.00;98157.88;5033352;28;20083;-79
2021/12/01 09:09:24;;;;;;;1.45;0.90;;;7.70;99.90;;;8.15;100.00;98161.47;5033745;28;20034;-80
2021/12/01 09:11:52;;;;;;;1.70;1.10;;;7.70;99.90;;;8.25;100.00;98150.28;5035191;28;20033;-79
2021/12/01 09:14:23;;;;;;;2.28;1.13;;;7.80;99.90;;;8.17;100.00;98147.94;5036241;28;20033;-79
2021/12/01 09:16:52;;;;;;;1.13;1.00;;;7.80;99.90;;;8.26;100.00;98153.88;5035135;28;20029;-76
2021/12/01 09:19:19;;;;;;;2.22;1.25;;;7.80;99.90;;;8.21;100.00;98135.63;5035055;28;20103;-78
2021/12/01 09:21:47;;;;;;;0.93;0.90;;;7.80;99.90;;;8.28;100.00;98135.63;5044591;28;20048;-79
2021/12/01 09:24:15;;;;;;;0.80;0.80;;;7.80;99.90;;;8.32;100.00;98128.06;5053828;28;20041;-80
2021/12/01 09:26:49;;;;;;;4.00;1.40;;;7.90;99.90;;;8.31;100.00;98128.47;5055308;28;20051;-78
2021/12/01 09:29:18;;;;;;;0.80;0.80;;;7.90;99.90;;;8.39;100.00;98130.00;5055382;28;20062;-80
2021/12/01 09:31:47;;;;;;;2.22;1.00;;;7.90;99.90;;;8.40;100.00;98120.47;5054853;28;20025;-79
2021/12/01 09:34:12;;;;;;;0.90;0.80;;;7.90;99.90;;;8.44;100.00;98121.25;5070646;28;20138;-78
2021/12/01 09:36:39;;;;;;;1.58;1.00;;;7.90;99.90;;;8.43;100.00;98123.25;5052830;28;20037;-79
2021/12/01 09:39:05;;;;;;;1.05;0.77;;;8.00;99.90;;;8.55;100.00;98121.97;5054815;28;20059;-79
2021/12/01 09:41:31;;;;;;;1.90;1.30;;;8.00;99.90;;;8.54;100.00;98114.06;5055979;28;20028;-82
2021/12/01 09:44:04;;;;;;;1.50;1.00;;;8.00;99.90;;;8.65;100.00;98110.00;5055005;28;20051;-79
2021/12/01 09:46:30;;;;;;;1.25;0.93;;;8.10;99.90;;;8.58;100.00;98110.03;5053982;28;20040;-79
2021/12/01 09:48:58;;;;;;;1.85;1.33;;;8.10;99.90;;;8.60;100.00;98107.66;5053797;28;20025;-79
2021/12/01 09:51:24;;;;;;;0.88;0.65;;;8.10;99.90;;;8.60;100.00;98092.97;5055494;28;20165;-80
2021/12/01 09:53:57;;;;;;;2.03;1.05;;;8.10;99.90;;;8.68;100.00;98106.41;5056435;28;20450;-81
2021/12/01 09:56:25;;;;;;;1.38;0.80;;;8.10;99.90;;;8.53;100.00;98095.78;5056483;28;20445;-78
2021/12/01 09:58:51;;;;;;;2.53;1.27;;;8.10;99.90;;;8.60;100.00;98099.31;5056237;28;20025;-79
2021/12/01 10:01:25;;;;;;;1.65;0.80;;;8.10;99.90;;;8.65;100.00;98090.53;5058084;28;20040;-80
2021/12/01 10:03:52;;;;;;;1.85;0.95;;;8.10;99.90;;;8.73;100.00;98085.72;5056151;28;20025;-79
2021/12/01 10:06:22;;;;;;;1.38;1.00;;;8.20;99.90;;;8.78;100.00;98088.88;5054015;28;20120;-81
2021/12/01 10:08:59;;;;;;;1.98;1.35;;;8.20;99.90;;;8.82;100.00;98081.28;5056366;28;20044;-78
2021/12/01 10:11:29;;;;;;;3.47;1.17;;;8.30;99.90;;;8.79;100.00;98082.09;5055138;28;20032;-79
2021/12/01 10:14:10;;;;;;;2.28;0.95;;;8.30;99.90;;;8.80;100.00;98078.09;5053753;28;20402;-78
2021/12/01 10:16:43;;;;;;;1.60;1.02;;;8.30;99.90;;;8.86;100.00;98070.13;5052955;28;20112;-78
2021/12/01 10:19:16;;;;;;;3.55;1.13;;;8.30;99.90;;;8.81;100.00;98067.78;5055172;28;20037;-79
2021/12/01 10:21:52;;;;;;;2.72;1.70;;;8.30;99.90;;;8.84;100.00;98064.16;5053820;28;20477;-80
2021/12/01 10:24:36;;;;;;;2.72;0.70;;;8.30;99.90;;;8.79;100.00;98062.63;5055596;28;20035;-79
2021/12/01 10:27:11;;;;;;;1.85;0.80;;;8.30;99.90;;;8.86;100.00;98062.56;5054851;28;20116;-79
2021/12/01 10:29:48;;;;;;;1.60;1.00;;;8.40;99.90;;;8.87;100.00;98058.56;5055526;28;20079;-80
2021/12/01 10:32:19;;;;;;;2.38;0.88;;;8.40;99.90;;;8.93;100.00;98051.38;5055459;28;20476;-79
2021/12/01 10:34:53;;;;;;;1.23;0.80;;;8.40;99.90;;;8.95;100.00;98043.41;5054600;28;20036;-79
2021/12/01 10:37:33;;;;;;;2.90;0.80;;;8.40;99.90;;;8.95;100.00;98035.06;5054114;28;20036;-81
2021/12/01 10:40:29;;;;;;;2.00;1.30;;;8.40;99.90;;;8.82;100.00;98033.97;5054590;28;20059;-80
2021/12/01 10:43:22;;;;;;;1.30;1.10;;;8.30;99.90;;;8.88;100.00;98040.69;5054542;28;20029;-81